klacht.nl alexa rank chart, klacht.nl alexa rank daily changes

klacht.nl alexa rank chart, klacht.nl alexa rank daily changes

klacht.nl
Actual rank:
203 067

RANK HISTORY

Date Rank Diff
2017/10/23 203 067 -109
2017/10/22 203 176 +8 987
2017/10/21 194 189 -47
2017/10/20 194 236 -3 336
2017/10/19 197 572 -316
2017/10/18 197 888 -5 700
2017/10/17 203 588 -901
2017/10/16 204 489 +7 469
2017/10/14 197 020 +2 777
2017/10/13 194 243 -6 520
2017/10/12 200 763 +382
2017/10/11 200 381 -510
2017/10/10 200 891 +1 037
2017/10/09 199 854 +5 281
2017/10/08 194 573 -5 343
2017/10/07 199 916 +3 301
2017/10/06 196 615 -2 158
2017/10/05 198 773 -4 312
2017/10/04 203 085 -4 508
2017/10/03 207 593 -1 796
2017/10/02 209 389 +507
2017/10/01 208 882 +4 426
2017/09/30 204 456 +4 235
2017/09/29 200 221 -7 549
2017/09/28 207 770 +9 041
2017/09/27 198 729 -3 924
2017/09/26 202 653 -1 483
2017/09/25 204 136 -1 976
2017/09/24 206 112 -189
2017/09/23 206 301 -9 113
2017/09/22 215 414 -2 409
2017/09/20 217 823 +1 822
2017/09/19 216 001 +2 009
2017/09/18 213 992 +3 556
2017/09/17 210 436 -1 947
2017/09/16 212 383 -1 284
2017/09/15 213 667 -1 153
2017/09/14 214 820 -4 332
2017/09/13 219 152 +1 469
2017/09/12 217 683 +6 498
2017/09/11 211 185 +6 267
2017/09/10 204 918 +2 967
2017/09/09 201 951 -1 368
2017/09/08 203 319 +504
2017/09/07 202 815 -2 447
2017/09/06 205 262 -2 516
2017/09/05 207 778 +2 772
2017/09/04 205 006 +6 572
2017/09/03 198 434 +2 740
2017/09/02 195 694 -3 060
2017/09/01 198 754 -1 953
2017/08/31 200 707 -6 254
2017/08/30 206 961 -2 774
2017/08/29 209 735 +4 009
2017/08/28 205 726 -7 478
2017/08/27 213 204 +914
2017/08/26 212 290 +539
2017/08/25 211 751 -2 300
2017/08/24 214 051

WIDGET FOR YOUR SITE

DOMAINS WITH THE NEAREST RANK

Domain Rank
avsoda.com 203 062
liveodia.in 203 063
flipcause.com 203 064
kreativeideer.no 203 065
dogingtonpost.com 203 066
klacht.nl 203 067
iotsworldcongress.com 203 068
zelfmaak-ideetjes.nl 203 069
azamaraclubcruises.com 203 070
ecology-of.ru 203 071
allwidewallpapers.com 203 072

DOMAINS WITH THE NEAREST RANK BY TLD .nl

Domain Rank
rushhour.nl 201 427
waldnet.nl 201 639
nporadio2.nl 201 912
def-shop.nl 202 121
studiemeter.nl 202 482
klacht.nl 203 067
zelfmaak-ideetjes.nl 203 069
templatemaker.nl 203 105
bibliotheek.nl 203 463
man-man.nl 203 635
nextdoor.nl 203 811